Messwerte Douala

Temperatur

Temperatur
°C
1573876800 5.00 5.00 26
1573880400 6.00 6.00 25
1573884000 7.00 7.00 25
1573887600 8.00 8.00 27
1573891200 9.00 9.00 29
1573894800 10.00 10.00 29
1573898400 11.00 11.00 30
1573902000 12.00 12.00 31
1573905600 13.00 13.00 31
1573909200 14.00 14.00 31
1573912800 15.00 15.00
1573916400 16.00 16.00 30
1573920000 17.00 17.00 30
1573923600 18.00 18.00 29
1573927200 19.00 19.00 28
1573930800 20.00 20.00 28
1573934400 21.00 21.00 27
1573938000 22.00 22.00 27
1573941600 23.00 23.00 27
1573945200 0.00 0.00 27
1573948800 1.00 1.00 26
1573952400 2.00 2.00
1573956000 3.00 3.00 25
1573959600 4.00 4.00 25

Aktuellste Messwerte

Wettercharakter
Wetter: wechselnd bewölkt
Temperatur
25 °C
Feuchtigkeit
94 %
Wind
5 km/hWindrichtung: Nordost
Luftdruck
1009 hPa
Messzeit: 17. November 2019, 4.00Datenquelle: METAR

Weitere Messstationen in der Nähe

Messstation Temperatur Entfernung
Malabo 26 °C 110 km
Yaoundé 22 °C 199 km
Port Harcourt 23 °C 328 km
Libreville 24 °C 396 km

Wind

Windrichtung Böen Mittelwind
° km/h km/h
1573876800 5.00 4.00 - 5.00 0
1573880400 6.00 5.00 - 6.00 0
1573884000 7.00 6.00 - 7.00 90° 5
1573887600 8.00 7.00 - 8.00 0
1573891200 9.00 8.00 - 9.00 5
1573894800 10.00 9.00 - 10.00 5
1573898400 11.00 10.00 - 11.00 5
1573902000 12.00 11.00 - 12.00 5
1573905600 13.00 12.00 - 13.00 5
1573909200 14.00 13.00 - 14.00 10
1573912800 15.00 14.00 - 15.00
1573916400 16.00 15.00 - 16.00 10
1573920000 17.00 16.00 - 17.00 5
1573923600 18.00 17.00 - 18.00 5
1573927200 19.00 18.00 - 19.00 5
1573930800 20.00 19.00 - 20.00 5
1573934400 21.00 20.00 - 21.00 0
1573938000 22.00 21.00 - 22.00 5
1573941600 23.00 22.00 - 23.00 5
1573945200 0.00 23.00 - 0.00 5
1573948800 1.00 0.00 - 1.00 5
1573952400 2.00 1.00 - 2.00
1573956000 3.00 2.00 - 3.00 0
1573959600 4.00 3.00 - 4.00 50° 5

Ihre Wetterstation

Fehlt Ihre Wetterstation auf unserem Portal?

Schreiben Sie an network@meteonews.ch